createdAt,value
2018-12-07T00:02:18.874Z,12.90
2018-12-07T00:04:46.373Z,12.90
2018-12-07T00:07:13.947Z,12.90
2018-12-07T00:09:41.411Z,13.00
2018-12-07T00:12:08.865Z,13.00
2018-12-07T00:14:36.423Z,12.90
2018-12-07T00:17:03.913Z,12.90
2018-12-07T00:19:31.410Z,12.80
2018-12-07T00:21:58.973Z,12.80
2018-12-07T00:24:26.397Z,12.80
2018-12-07T00:26:53.856Z,12.80
2018-12-07T00:29:21.337Z,12.80
2018-12-07T00:31:48.789Z,12.90
2018-12-07T00:34:16.279Z,12.80
2018-12-07T00:36:43.744Z,12.90
2018-12-07T00:39:11.343Z,12.90
2018-12-07T00:41:38.788Z,12.90
2018-12-07T00:44:06.815Z,12.90
2018-12-07T00:46:34.406Z,12.90
2018-12-07T00:49:01.885Z,12.90
2018-12-07T00:51:29.347Z,12.90
2018-12-07T00:53:56.786Z,12.90
2018-12-07T00:56:24.287Z,12.90
2018-12-07T00:58:51.851Z,12.90
2018-12-07T01:01:19.309Z,12.90
2018-12-07T01:03:46.782Z,12.80
2018-12-07T01:06:14.225Z,12.90
2018-12-07T01:08:41.772Z,12.90
2018-12-07T01:11:09.295Z,12.90
2018-12-07T01:13:36.733Z,12.90
2018-12-07T01:16:04.172Z,12.90
2018-12-07T01:18:32.092Z,12.90
2018-12-07T01:20:59.533Z,12.90
2018-12-07T01:23:27.060Z,12.90
2018-12-07T01:25:54.687Z,12.90
2018-12-07T01:28:22.251Z,12.90
2018-12-07T01:30:49.710Z,12.90
2018-12-07T01:33:17.177Z,12.90
2018-12-07T01:35:44.646Z,12.90
2018-12-07T01:38:12.110Z,12.80
2018-12-07T01:40:40.185Z,12.80
2018-12-07T01:43:07.622Z,12.80
2018-12-07T01:45:35.192Z,12.80
2018-12-07T01:48:02.987Z,12.70
2018-12-07T01:50:30.502Z,12.70
2018-12-07T01:52:58.082Z,12.70
2018-12-07T01:55:25.628Z,12.60
2018-12-07T01:57:53.072Z,12.60
2018-12-07T02:00:20.589Z,12.60
2018-12-07T02:02:48.110Z,12.60
2018-12-07T02:05:15.646Z,12.60
2018-12-07T02:07:43.112Z,12.60
2018-12-07T02:10:10.652Z,12.60
2018-12-07T02:12:38.218Z,12.60
2018-12-07T02:15:05.898Z,12.60
2018-12-07T02:17:33.688Z,12.60
2018-12-07T02:20:01.108Z,12.60
2018-12-07T02:22:28.647Z,12.60
2018-12-07T02:24:56.172Z,12.60
2018-12-07T02:27:23.652Z,12.60
2018-12-07T02:29:51.226Z,12.60
2018-12-07T02:32:18.670Z,12.60
2018-12-07T02:34:46.199Z,12.70
2018-12-07T02:37:13.646Z,12.70
2018-12-07T02:39:41.147Z,12.70
2018-12-07T02:42:08.650Z,12.60
2018-12-07T02:44:36.098Z,12.60
2018-12-07T02:47:03.929Z,12.60
2018-12-07T02:49:31.387Z,12.70
2018-12-07T02:51:58.835Z,12.70
2018-12-07T02:54:26.392Z,12.70
2018-12-07T02:56:53.936Z,12.70
2018-12-07T02:59:21.470Z,12.60
2018-12-07T03:01:48.894Z,12.70
2018-12-07T03:04:16.420Z,12.60
2018-12-07T03:06:43.924Z,12.60
2018-12-07T03:09:11.452Z,12.60
2018-12-07T03:11:38.960Z,12.60
2018-12-07T03:14:06.452Z,12.60
2018-12-07T03:16:34.670Z,12.60
2018-12-07T03:19:02.180Z,12.60
2018-12-07T03:21:30.744Z,12.60
2018-12-07T03:23:58.224Z,12.60
2018-12-07T03:26:25.676Z,12.60
2018-12-07T03:28:53.212Z,12.60
2018-12-07T03:31:20.679Z,12.60
2018-12-07T03:33:48.155Z,12.70
2018-12-07T03:36:15.684Z,12.60
2018-12-07T03:38:43.130Z,12.60
2018-12-07T03:41:10.608Z,12.60
2018-12-07T03:43:38.050Z,12.60
2018-12-07T03:46:05.568Z,12.60
2018-12-07T03:48:33.057Z,12.60
2018-12-07T03:51:00.481Z,12.60
2018-12-07T03:53:27.952Z,12.60
2018-12-07T03:55:55.574Z,12.60
2018-12-07T03:58:23.112Z,12.60
2018-12-07T04:00:50.564Z,12.60
2018-12-07T04:03:18.548Z,12.50
2018-12-07T04:05:45.984Z,12.60
2018-12-07T04:08:13.438Z,12.60
2018-12-07T04:10:40.928Z,12.60
2018-12-07T04:13:08.368Z,12.60
2018-12-07T04:15:36.241Z,12.50
2018-12-07T04:18:03.801Z,12.40
2018-12-07T04:20:31.248Z,12.40
2018-12-07T04:22:58.705Z,12.30
2018-12-07T04:25:26.149Z,12.20
2018-12-07T04:27:53.624Z,12.20
2018-12-07T04:30:23.232Z,12.10
2018-12-07T04:32:50.893Z,12.00
2018-12-07T04:35:18.411Z,12.00
2018-12-07T04:37:45.886Z,11.90
2018-12-07T04:40:13.491Z,11.90
2018-12-07T04:42:40.928Z,11.80
2018-12-07T04:45:08.594Z,11.80
2018-12-07T04:47:36.358Z,11.80
2018-12-07T04:50:04.322Z,11.70
2018-12-07T04:52:31.926Z,11.70
2018-12-07T04:54:59.646Z,11.60
2018-12-07T04:57:27.185Z,11.60
2018-12-07T04:59:54.762Z,11.70
2018-12-07T05:02:22.199Z,11.60
2018-12-07T05:04:50.018Z,11.60
2018-12-07T05:07:18.113Z,11.70
2018-12-07T05:09:45.583Z,11.50
2018-12-07T05:12:13.039Z,11.50
2018-12-07T05:14:40.547Z,11.50
2018-12-07T05:17:08.093Z,11.50
2018-12-07T05:19:35.532Z,11.40
2018-12-07T05:22:03.001Z,11.30
2018-12-07T05:24:30.541Z,11.30
2018-12-07T05:26:58.093Z,11.30
2018-12-07T05:29:25.553Z,11.20
2018-12-07T05:31:53.002Z,11.20
2018-12-07T05:34:20.537Z,11.20
2018-12-07T05:36:48.008Z,11.20
2018-12-07T05:39:15.501Z,11.20
2018-12-07T05:41:43.005Z,11.20
2018-12-07T05:44:10.515Z,11.10
2018-12-07T05:46:38.063Z,11.10
2018-12-07T05:49:05.655Z,11.20
2018-12-07T05:51:33.157Z,11.10
2018-12-07T05:54:00.641Z,11.20
2018-12-07T05:56:28.109Z,11.20
2018-12-07T05:58:55.662Z,11.20
2018-12-07T06:01:23.223Z,11.20
2018-12-07T06:03:50.853Z,11.10
2018-12-07T06:06:18.310Z,11.00
2018-12-07T06:08:45.748Z,11.10
2018-12-07T06:11:13.265Z,11.10
2018-12-07T06:13:40.702Z,11.10
2018-12-07T06:16:08.284Z,11.00
2018-12-07T06:18:35.743Z,11.10
2018-12-07T06:21:03.196Z,11.10
2018-12-07T06:23:35.407Z,11.20
2018-12-07T06:26:02.980Z,11.10
2018-12-07T06:28:30.499Z,11.10
2018-12-07T06:33:30.065Z,11.00
2018-12-07T06:35:57.651Z,11.20
2018-12-07T06:38:26.719Z,11.20
2018-12-07T06:40:54.508Z,11.20
2018-12-07T06:43:25.247Z,11.10
2018-12-07T06:45:57.168Z,11.20
2018-12-07T06:48:24.811Z,11.20
2018-12-07T06:50:52.314Z,11.30
2018-12-07T06:53:24.348Z,11.30
2018-12-07T06:55:51.781Z,11.20
2018-12-07T06:58:19.308Z,11.30
2018-12-07T07:00:49.161Z,11.40
2018-12-07T07:03:16.964Z,11.50
2018-12-07T07:05:45.117Z,11.50
2018-12-07T07:08:14.620Z,11.60
2018-12-07T07:10:42.562Z,11.70
2018-12-07T07:13:13.381Z,11.70
2018-12-07T07:15:45.226Z,11.70
2018-12-07T07:18:12.767Z,11.80
2018-12-07T07:20:40.318Z,11.80
2018-12-07T07:23:11.863Z,11.80
2018-12-07T07:25:39.352Z,11.90
2018-12-07T07:28:07.057Z,11.90
2018-12-07T07:30:38.965Z,11.90
2018-12-07T07:33:06.488Z,11.90
2018-12-07T07:35:33.989Z,11.90
2018-12-07T07:38:09.005Z,11.90
2018-12-07T07:43:16.828Z,11.90
2018-12-07T07:45:48.626Z,12.00
2018-12-07T07:48:16.082Z,12.00
2018-12-07T07:50:43.650Z,12.10
2018-12-07T07:53:17.979Z,12.00
2018-12-07T07:55:53.300Z,12.00
2018-12-07T07:58:24.385Z,12.00
2018-12-07T08:00:51.931Z,12.10
2018-12-07T08:03:19.400Z,12.00
2018-12-07T08:05:50.872Z,12.00
2018-12-07T08:08:18.510Z,12.10
2018-12-07T08:10:46.287Z,12.10
2018-12-07T08:13:18.817Z,12.10
2018-12-07T08:15:51.161Z,12.10
2018-12-07T08:18:18.620Z,12.20
2018-12-07T08:20:46.193Z,12.20
2018-12-07T08:23:18.018Z,12.20
2018-12-07T08:25:45.579Z,12.20
2018-12-07T08:28:13.068Z,12.20
2018-12-07T08:30:45.440Z,12.20
2018-12-07T08:33:12.926Z,12.20
2018-12-07T08:35:40.930Z,12.20
2018-12-07T08:38:12.788Z,12.30
2018-12-07T08:40:40.284Z,12.30
2018-12-07T08:43:07.720Z,12.40
2018-12-07T08:45:39.188Z,12.40
2018-12-07T08:48:06.643Z,12.30
2018-12-07T08:50:34.105Z,12.30
2018-12-07T08:53:06.064Z,12.40
2018-12-07T08:55:33.507Z,12.40
2018-12-07T08:58:01.040Z,12.50
2018-12-07T09:00:34.988Z,12.40
2018-12-07T09:03:07.086Z,12.40
2018-12-07T09:05:34.568Z,12.30
2018-12-07T09:08:02.272Z,12.40
2018-12-07T09:10:34.471Z,12.40
2018-12-07T09:13:01.912Z,12.40
2018-12-07T09:15:29.365Z,12.40
2018-12-07T09:18:01.941Z,12.50
2018-12-07T09:20:29.420Z,12.60
2018-12-07T09:22:58.537Z,12.60
2018-12-07T09:25:30.755Z,12.60
2018-12-07T09:28:03.588Z,12.60
2018-12-07T09:33:02.889Z,12.60
2018-12-07T09:35:30.413Z,12.60
2018-12-07T09:40:38.377Z,12.70
2018-12-07T09:43:10.910Z,12.80
2018-12-07T09:45:38.387Z,12.70
2018-12-07T09:48:05.883Z,12.80
2018-12-07T09:50:39.881Z,12.80
2018-12-07T09:53:12.266Z,12.90
2018-12-07T09:55:39.721Z,12.80
2018-12-07T09:58:07.897Z,12.70
2018-12-07T10:00:42.355Z,12.50
2018-12-07T10:03:16.397Z,12.90
2018-12-07T10:05:49.857Z,13.10
2018-12-07T10:08:24.986Z,13.30
2018-12-07T10:10:56.890Z,13.10
2018-12-07T10:13:24.332Z,13.00
2018-12-07T10:15:51.803Z,13.00
2018-12-07T10:18:26.155Z,13.00
2018-12-07T10:21:01.851Z,12.90
2018-12-07T10:23:31.884Z,12.90
2018-12-07T10:25:59.352Z,12.70
2018-12-07T10:28:26.837Z,12.60
2018-12-07T10:31:01.964Z,12.70
2018-12-07T10:33:32.880Z,12.60
2018-12-07T10:36:08.214Z,12.70
2018-12-07T10:38:38.782Z,12.60
2018-12-07T10:41:08.148Z,12.70
2018-12-07T10:43:35.610Z,12.70
2018-12-07T10:48:35.272Z,12.80
2018-12-07T10:51:07.902Z,12.90
2018-12-07T10:53:36.235Z,12.90
2018-12-07T10:56:08.650Z,13.00
2018-12-07T10:58:36.166Z,13.00
2018-12-07T11:01:09.416Z,13.10
2018-12-07T11:03:43.085Z,13.00
2018-12-07T11:06:17.460Z,13.20
2018-12-07T11:08:51.794Z,13.20
2018-12-07T11:11:25.828Z,13.20
2018-12-07T11:13:59.892Z,13.20
2018-12-07T11:16:34.140Z,13.30
2018-12-07T11:22:21.963Z,13.30
2018-12-07T11:24:55.873Z,13.30
2018-12-07T11:27:30.007Z,13.30
2018-12-07T11:36:14.951Z,13.30
2018-12-07T11:38:42.456Z,13.40
2018-12-07T11:41:10.400Z,13.40
2018-12-07T11:43:43.831Z,13.40
2018-12-07T11:46:16.265Z,13.40
2018-12-07T11:48:46.347Z,13.30
2018-12-07T11:51:13.890Z,13.30
2018-12-07T11:53:43.559Z,13.30
2018-12-07T11:58:44.777Z,13.40
2018-12-07T12:01:13.214Z,13.30
2018-12-07T12:03:44.249Z,13.40
2018-12-07T12:06:14.052Z,13.40
2018-12-07T12:08:42.184Z,13.40
2018-12-07T12:11:11.376Z,13.40
2018-12-07T12:16:11.017Z,13.40
2018-12-07T12:18:38.529Z,13.50
2018-12-07T12:21:08.307Z,13.50
2018-12-07T12:23:36.064Z,13.50
2018-12-07T12:26:05.319Z,13.40
2018-12-07T12:28:37.604Z,13.40
2018-12-07T12:31:05.050Z,13.50
2018-12-07T12:33:32.531Z,13.40
2018-12-07T12:35:59.997Z,13.40
2018-12-07T12:38:27.419Z,13.40
2018-12-07T12:40:55.067Z,13.50
2018-12-07T12:43:22.609Z,13.50
2018-12-07T12:45:52.272Z,13.50
2018-12-07T12:48:24.725Z,13.60
2018-12-07T12:50:52.459Z,13.60
2018-12-07T12:53:20.198Z,13.60
2018-12-07T12:55:52.738Z,13.60
2018-12-07T12:58:20.268Z,13.60
2018-12-07T13:00:54.716Z,13.60
2018-12-07T13:03:22.896Z,13.70
2018-12-07T13:05:55.320Z,13.70
2018-12-07T13:08:27.888Z,13.70
2018-12-07T13:10:55.323Z,13.70
2018-12-07T13:16:12.020Z,13.70
2018-12-07T13:18:48.891Z,13.70
2018-12-07T13:21:20.239Z,13.60
2018-12-07T13:23:49.934Z,13.60
2018-12-07T13:26:42.811Z,13.60
2018-12-07T13:29:10.693Z,13.60
2018-12-07T13:31:38.213Z,13.50
2018-12-07T13:34:10.204Z,13.50
2018-12-07T13:36:39.493Z,13.60
2018-12-07T13:41:50.371Z,13.60
2018-12-07T13:44:16.248Z,13.50
2018-12-07T13:46:46.125Z,13.50
2018-12-07T13:49:18.099Z,13.40
2018-12-07T13:51:46.421Z,13.40
2018-12-07T13:54:17.526Z,13.40
2018-12-07T13:56:46.593Z,13.40
2018-12-07T13:59:18.292Z,13.40
2018-12-07T14:01:46.400Z,13.40
2018-12-07T14:04:16.039Z,13.30
2018-12-07T14:06:52.964Z,13.30
2018-12-07T14:09:23.355Z,13.30
2018-12-07T14:12:18.871Z,13.40
2018-12-07T14:14:46.534Z,13.30
2018-12-07T14:17:19.629Z,13.30
2018-12-07T14:19:53.805Z,13.20
2018-12-07T14:22:21.916Z,13.20
2018-12-07T14:24:50.896Z,13.10
2018-12-07T14:27:20.997Z,13.10
2018-12-07T14:29:55.584Z,13.10
2018-12-07T14:32:29.202Z,13.00
2018-12-07T14:35:03.645Z,13.00
2018-12-07T14:37:36.435Z,13.00
2018-12-07T14:40:11.262Z,13.00
2018-12-07T14:45:11.829Z,12.90
2018-12-07T14:47:39.718Z,12.90
2018-12-07T14:50:11.928Z,12.90
2018-12-07T14:52:39.558Z,12.90
2018-12-07T14:55:07.362Z,12.90
2018-12-07T14:57:40.731Z,12.90
2018-12-07T15:00:13.048Z,12.90
2018-12-07T15:02:40.678Z,12.90
2018-12-07T15:05:09.681Z,12.90
2018-12-07T15:07:41.184Z,12.80
2018-12-07T15:10:14.104Z,12.80
2018-12-07T15:12:42.041Z,12.80
2018-12-07T15:15:10.934Z,12.80
2018-12-07T15:17:41.405Z,12.70
2018-12-07T15:20:15.151Z,12.70
2018-12-07T15:22:42.728Z,12.70
2018-12-07T15:25:15.438Z,12.60
2018-12-07T15:27:43.351Z,12.50
2018-12-07T15:30:15.782Z,12.50
2018-12-07T15:32:43.360Z,12.50
2018-12-07T15:35:11.222Z,12.40
2018-12-07T15:37:42.240Z,12.30
2018-12-07T15:40:09.959Z,12.20
2018-12-07T15:42:37.671Z,12.20
2018-12-07T15:45:10.150Z,12.10
2018-12-07T15:47:42.675Z,12.00
2018-12-07T15:50:10.419Z,12.00
2018-12-07T15:52:38.207Z,12.00
2018-12-07T15:55:12.775Z,11.90
2018-12-07T15:57:42.373Z,11.90
2018-12-07T16:00:10.525Z,12.10
2018-12-07T16:02:38.880Z,11.90
2018-12-07T16:05:06.837Z,11.90
2018-12-07T16:07:34.551Z,11.80
2018-12-07T16:10:03.096Z,11.70
2018-12-07T16:12:31.634Z,11.70
2018-12-07T16:14:59.407Z,11.60
2018-12-07T16:17:27.167Z,11.60
2018-12-07T16:19:54.714Z,11.60
2018-12-07T16:22:22.325Z,11.60
2018-12-07T16:24:49.862Z,11.50
2018-12-07T16:27:17.487Z,11.50
2018-12-07T16:29:45.293Z,11.60
2018-12-07T16:32:12.927Z,11.50
2018-12-07T16:34:40.526Z,11.50
2018-12-07T16:37:08.093Z,11.50
2018-12-07T16:39:35.609Z,11.40
2018-12-07T16:42:03.316Z,11.50
2018-12-07T16:44:30.792Z,11.40
2018-12-07T16:46:58.344Z,11.50
2018-12-07T16:49:26.484Z,11.40
2018-12-07T16:51:54.293Z,11.40
2018-12-07T16:54:22.701Z,11.40
2018-12-07T16:56:50.656Z,11.40
2018-12-07T16:59:18.280Z,11.40
2018-12-07T17:01:45.922Z,11.40
2018-12-07T17:04:13.707Z,11.40
2018-12-07T17:06:41.295Z,11.50
2018-12-07T17:09:08.740Z,11.50
2018-12-07T17:11:36.262Z,11.50
2018-12-07T17:14:04.078Z,11.50
2018-12-07T17:16:31.714Z,11.50
2018-12-07T17:18:59.303Z,11.40
2018-12-07T17:21:26.862Z,11.40
2018-12-07T17:23:54.687Z,11.40
2018-12-07T17:26:22.243Z,11.30
2018-12-07T17:28:50.150Z,11.30
2018-12-07T17:31:17.911Z,11.30
2018-12-07T17:33:45.456Z,11.20
2018-12-07T17:36:13.148Z,11.20
2018-12-07T17:38:40.940Z,11.10
2018-12-07T17:41:08.729Z,11.10
2018-12-07T17:43:36.278Z,11.10
2018-12-07T17:46:04.049Z,10.90
2018-12-07T17:48:31.781Z,10.90
2018-12-07T17:50:59.547Z,10.80
2018-12-07T17:53:27.063Z,10.70
2018-12-07T17:55:54.706Z,10.70
2018-12-07T17:58:22.613Z,10.60
2018-12-07T18:00:50.198Z,10.60
2018-12-07T18:03:17.961Z,10.50
2018-12-07T18:05:45.401Z,10.40
2018-12-07T18:08:12.987Z,10.40
2018-12-07T18:10:40.733Z,10.30
2018-12-07T18:13:08.392Z,10.20
2018-12-07T18:15:35.857Z,10.20
2018-12-07T18:18:03.694Z,10.10
2018-12-07T18:20:31.477Z,10.10
2018-12-07T18:22:59.180Z,10.00
2018-12-07T18:25:27.242Z,10.00
2018-12-07T18:27:54.858Z,10.00
2018-12-07T18:30:22.460Z,9.90
2018-12-07T18:32:50.036Z,9.90
2018-12-07T18:35:17.807Z,9.80
2018-12-07T18:37:45.328Z,9.80
2018-12-07T18:40:13.175Z,9.80
2018-12-07T18:42:40.913Z,9.80
2018-12-07T18:45:08.635Z,9.70
2018-12-07T18:47:36.413Z,10.00
2018-12-07T18:50:05.684Z,9.80
2018-12-07T18:52:33.378Z,9.70
2018-12-07T18:55:01.052Z,9.70
2018-12-07T18:57:28.645Z,9.60
2018-12-07T18:59:56.235Z,9.40
2018-12-07T19:02:23.880Z,9.00
2018-12-07T19:04:51.921Z,8.80
2018-12-07T19:07:21.096Z,8.60
2018-12-07T19:09:48.844Z,8.40
2018-12-07T19:12:16.513Z,8.30
2018-12-07T19:14:44.121Z,8.30
2018-12-07T19:17:11.991Z,8.30
2018-12-07T19:19:39.826Z,8.30
2018-12-07T19:22:07.580Z,8.30
2018-12-07T19:24:35.249Z,8.30
2018-12-07T19:27:03.005Z,8.30
2018-12-07T19:29:30.644Z,8.30
2018-12-07T19:31:58.297Z,8.20
2018-12-07T19:34:26.082Z,8.30
2018-12-07T19:36:53.955Z,8.20
2018-12-07T19:39:21.699Z,8.30
2018-12-07T19:41:49.253Z,8.30
2018-12-07T19:44:17.109Z,8.90
2018-12-07T19:46:44.860Z,8.60
2018-12-07T19:49:12.749Z,8.40
2018-12-07T19:51:40.557Z,8.40
2018-12-07T19:54:08.663Z,8.30
2018-12-07T19:56:36.445Z,8.30
2018-12-07T19:59:04.089Z,8.20
2018-12-07T20:01:31.574Z,8.20
2018-12-07T20:03:59.097Z,8.20
2018-12-07T20:06:26.988Z,8.20
2018-12-07T20:08:54.844Z,8.20
2018-12-07T20:11:22.412Z,8.20
2018-12-07T20:13:50.006Z,8.20
2018-12-07T20:16:18.026Z,8.20
2018-12-07T20:18:45.848Z,8.20
2018-12-07T20:21:13.615Z,8.40
2018-12-07T20:23:42.031Z,8.50
2018-12-07T20:26:09.775Z,8.30
2018-12-07T20:28:37.627Z,8.20
2018-12-07T20:31:05.188Z,8.20
2018-12-07T20:33:32.943Z,8.20
2018-12-07T20:36:00.667Z,8.10
2018-12-07T20:38:28.535Z,8.10
2018-12-07T20:40:56.390Z,8.00
2018-12-07T20:43:24.101Z,8.00
2018-12-07T20:45:51.762Z,8.00
2018-12-07T20:48:19.438Z,8.00
2018-12-07T20:50:47.405Z,8.00
2018-12-07T20:53:15.298Z,7.90
2018-12-07T20:55:42.914Z,7.80
2018-12-07T20:58:10.772Z,7.90
2018-12-07T21:00:38.430Z,7.80
2018-12-07T21:03:06.053Z,7.80
2018-12-07T21:06:00.477Z,7.80
2018-12-07T21:08:45.124Z,7.70
2018-12-07T21:11:12.875Z,7.60
2018-12-07T21:17:12.817Z,7.60
2018-12-07T21:19:43.542Z,7.60
2018-12-07T21:22:11.692Z,7.60
2018-12-07T21:24:39.485Z,7.60
2018-12-07T21:27:08.291Z,7.60
2018-12-07T21:29:36.208Z,7.60
2018-12-07T21:32:07.411Z,7.60
2018-12-07T21:37:33.639Z,7.70
2018-12-07T21:40:06.447Z,7.90
2018-12-07T21:42:34.102Z,7.90
2018-12-07T21:45:01.770Z,7.90
2018-12-07T21:48:01.566Z,8.00
2018-12-07T21:50:29.138Z,8.00
2018-12-07T21:52:56.895Z,8.40
2018-12-07T21:55:24.922Z,8.20
2018-12-07T21:57:52.558Z,8.10
2018-12-07T22:00:20.269Z,8.20
2018-12-07T22:02:48.230Z,8.20
2018-12-07T22:05:16.552Z,8.30
2018-12-07T22:07:44.350Z,8.30
2018-12-07T22:10:12.000Z,8.30
2018-12-07T22:12:39.592Z,8.30
2018-12-07T22:15:07.390Z,8.30
2018-12-07T22:17:35.018Z,8.20
2018-12-07T22:20:02.664Z,8.10
2018-12-07T22:22:30.711Z,8.10
2018-12-07T22:24:58.553Z,8.00
2018-12-07T22:27:26.307Z,8.00
2018-12-07T22:29:54.012Z,8.00
2018-12-07T22:32:21.902Z,8.00
2018-12-07T22:34:49.470Z,8.00
2018-12-07T22:37:16.948Z,8.00
2018-12-07T22:39:44.711Z,7.90
2018-12-07T22:42:12.655Z,7.90
2018-12-07T22:44:40.420Z,7.90
2018-12-07T22:47:08.344Z,7.90
2018-12-07T22:49:35.994Z,7.80
2018-12-07T22:52:03.502Z,7.70
2018-12-07T22:54:30.982Z,7.60
2018-12-07T22:56:58.462Z,7.60
2018-12-07T22:59:25.920Z,7.60
2018-12-07T23:01:53.625Z,7.60
2018-12-07T23:04:21.146Z,7.50
2018-12-07T23:06:48.698Z,7.50
2018-12-07T23:09:16.202Z,7.50
2018-12-07T23:11:43.646Z,7.40
2018-12-07T23:14:11.136Z,7.40
2018-12-07T23:16:38.585Z,7.40
2018-12-07T23:19:06.028Z,7.30
2018-12-07T23:21:33.682Z,7.20
2018-12-07T23:24:01.306Z,7.20
2018-12-07T23:26:28.800Z,7.20
2018-12-07T23:28:56.269Z,7.20
2018-12-07T23:31:23.809Z,7.20
2018-12-07T23:33:51.271Z,7.20
2018-12-07T23:36:19.339Z,7.20
2018-12-07T23:38:46.781Z,7.30
2018-12-07T23:41:14.233Z,7.20
2018-12-07T23:43:41.702Z,7.30
2018-12-07T23:46:09.171Z,7.30
2018-12-07T23:48:36.650Z,7.20
2018-12-07T23:51:04.116Z,7.20
2018-12-07T23:53:31.550Z,7.30
2018-12-07T23:55:59.152Z,7.30
2018-12-07T23:58:26.846Z,7.30
